sensor_id;sensor_type;location;lat;lon;timestamp;pressure;altitude;pressure_sealevel;temperature;humidity
63654;BME280;49809;47.418;19.080;2023-05-17T00:27:09;99669.81;;;13.76;100.00
63654;BME280;49809;47.418;19.080;2023-05-17T00:35:35;99672.97;;;13.78;100.00
63654;BME280;49809;47.418;19.080;2023-05-17T00:39:55;99670.47;;;13.68;100.00
63654;BME280;49809;47.418;19.080;2023-05-17T00:43:22;99663.63;;;13.62;100.00
63654;BME280;49809;47.418;19.080;2023-05-17T00:53:59;99671.84;;;13.41;100.00
63654;BME280;49809;47.418;19.080;2023-05-17T00:58:13;99674.56;;;13.36;100.00
63654;BME280;49809;47.418;19.080;2023-05-17T01:09:23;99682.53;;;13.36;100.00
63654;BME280;49809;47.418;19.080;2023-05-17T01:13:21;99682.06;;;13.34;100.00
63654;BME280;49809;47.418;19.080;2023-05-17T01:17:19;99690.50;;;13.36;100.00
63654;BME280;49809;47.418;19.080;2023-05-17T01:20:55;99680.41;;;13.38;100.00
63654;BME280;49809;47.418;19.080;2023-05-17T01:28:51;99682.94;;;13.48;100.00
63654;BME280;49809;47.418;19.080;2023-05-17T01:32:19;99672.81;;;13.51;100.00
63654;BME280;49809;47.418;19.080;2023-05-17T01:35:47;99666.91;;;13.54;100.00
63654;BME280;49809;47.418;19.080;2023-05-17T01:39:15;99651.47;;;13.56;100.00
63654;BME280;49809;47.418;19.080;2023-05-17T01:47:28;99639.69;;;13.62;100.00
63654;BME280;49809;47.418;19.080;2023-05-17T01:51:21;99642.00;;;13.68;100.00
63654;BME280;49809;47.418;19.080;2023-05-17T01:58:28;99650.03;;;13.82;100.00
63654;BME280;49809;47.418;19.080;2023-05-17T02:01:56;99656.88;;;13.88;100.00
63654;BME280;49809;47.418;19.080;2023-05-17T02:12:52;99659.47;;;13.93;100.00
63654;BME280;49809;47.418;19.080;2023-05-17T02:16:07;99666.72;;;13.87;100.00
63654;BME280;49809;47.418;19.080;2023-05-17T02:20:06;99659.09;;;13.81;100.00
63654;BME280;49809;47.418;19.080;2023-05-17T02:23:53;99657.03;;;13.78;100.00
63654;BME280;49809;47.418;19.080;2023-05-17T02:27:15;99666.22;;;13.67;100.00
63654;BME280;49809;47.418;19.080;2023-05-17T02:30:48;99668.94;;;13.62;100.00
63654;BME280;49809;47.418;19.080;2023-05-17T02:34:29;99676.97;;;13.57;100.00
63654;BME280;49809;47.418;19.080;2023-05-17T02:38:09;99693.94;;;13.61;100.00
63654;BME280;49809;47.418;19.080;2023-05-17T02:41:50;99692.38;;;13.60;100.00
63654;BME280;49809;47.418;19.080;2023-05-17T02:45:07;99692.72;;;13.53;100.00
63654;BME280;49809;47.418;19.080;2023-05-17T02:48:42;99692.03;;;13.42;100.00
63654;BME280;49809;47.418;19.080;2023-05-17T02:52:07;99692.16;;;13.32;100.00
63654;BME280;49809;47.418;19.080;2023-05-17T02:59:28;99690.13;;;13.24;100.00
63654;BME280;49809;47.418;19.080;2023-05-17T03:03:00;99684.81;;;13.24;100.00
63654;BME280;49809;47.418;19.080;2023-05-17T03:06:41;99692.00;;;13.24;100.00
63654;BME280;49809;47.418;19.080;2023-05-17T03:10:08;99693.31;;;13.26;100.00
63654;BME280;49809;47.418;19.080;2023-05-17T03:13:46;99688.75;;;13.27;100.00
63654;BME280;49809;47.418;19.080;2023-05-17T03:17:24;99686.41;;;13.25;100.00
63654;BME280;49809;47.418;19.080;2023-05-17T03:20:54;99695.72;;;13.23;100.00
63654;BME280;49809;47.418;19.080;2023-05-17T03:24:12;99695.19;;;13.26;100.00
63654;BME280;49809;47.418;19.080;2023-05-17T03:27:39;99685.84;;;13.28;100.00
63654;BME280;49809;47.418;19.080;2023-05-17T03:31:00;99698.50;;;13.36;100.00
63654;BME280;49809;47.418;19.080;2023-05-17T03:34:43;99696.06;;;13.40;100.00
63654;BME280;49809;47.418;19.080;2023-05-17T03:37:58;99719.63;;;13.46;100.00
63654;BME280;49809;47.418;19.080;2023-05-17T03:41:25;99712.75;;;13.45;100.00
63654;BME280;49809;47.418;19.080;2023-05-17T03:45:03;99728.66;;;13.51;100.00
63654;BME280;49809;47.418;19.080;2023-05-17T03:48:58;99742.91;;;13.60;100.00
63654;BME280;49809;47.418;19.080;2023-05-17T03:52:30;99750.75;;;13.70;100.00
63654;BME280;49809;47.418;19.080;2023-05-17T03:56:09;99750.13;;;13.78;100.00
63654;BME280;49809;47.418;19.080;2023-05-17T03:59:51;99763.84;;;13.85;100.00
63654;BME280;49809;47.418;19.080;2023-05-17T04:03:45;99765.09;;;13.92;100.00
63654;BME280;49809;47.418;19.080;2023-05-17T04:07:03;99754.31;;;14.03;100.00
63654;BME280;49809;47.418;19.080;2023-05-17T04:11:10;99748.63;;;14.09;100.00
63654;BME280;49809;47.418;19.080;2023-05-17T04:14:43;99739.44;;;14.20;100.00
63654;BME280;49809;47.418;19.080;2023-05-17T04:18:16;99754.81;;;14.23;100.00
63654;BME280;49809;47.418;19.080;2023-05-17T04:22:30;99762.19;;;14.31;100.00
63654;BME280;49809;47.418;19.080;2023-05-17T04:26:42;99772.72;;;14.42;100.00
63654;BME280;49809;47.418;19.080;2023-05-17T04:30:45;99777.38;;;14.50;100.00
63654;BME280;49809;47.418;19.080;2023-05-17T04:35:04;99780.16;;;14.58;100.00
63654;BME280;49809;47.418;19.080;2023-05-17T04:39:37;99794.72;;;14.66;100.00
63654;BME280;49809;47.418;19.080;2023-05-17T04:43:23;99817.44;;;14.77;100.00
63654;BME280;49809;47.418;19.080;2023-05-17T04:47:05;99824.88;;;14.80;100.00
63654;BME280;49809;47.418;19.080;2023-05-17T04:51:15;99829.16;;;14.95;100.00
63654;BME280;49809;47.418;19.080;2023-05-17T04:55:30;99828.69;;;15.06;100.00
63654;BME280;49809;47.418;19.080;2023-05-17T04:59:47;99835.91;;;15.06;100.00
63654;BME280;49809;47.418;19.080;2023-05-17T05:03:33;99835.53;;;15.12;100.00
63654;BME280;49809;47.418;19.080;2023-05-17T05:06:58;99830.28;;;15.07;100.00
63654;BME280;49809;47.418;19.080;2023-05-17T05:11:02;99828.78;;;15.34;100.00
63654;BME280;49809;47.418;19.080;2023-05-17T05:15:18;99825.66;;;15.59;100.00
63654;BME280;49809;47.418;19.080;2023-05-17T05:18:49;99822.94;;;15.78;100.00
63654;BME280;49809;47.418;19.080;2023-05-17T05:22:57;99823.00;;;15.59;100.00
63654;BME280;49809;47.418;19.080;2023-05-17T05:26:45;99828.13;;;15.69;100.00
63654;BME280;49809;47.418;19.080;2023-05-17T05:30:32;99838.84;;;15.83;100.00
63654;BME280;49809;47.418;19.080;2023-05-17T05:34:20;99841.09;;;15.89;100.00
63654;BME280;49809;47.418;19.080;2023-05-17T05:38:33;99844.47;;;15.95;100.00
63654;BME280;49809;47.418;19.080;2023-05-17T05:42:04;99849.09;;;16.03;100.00
63654;BME280;49809;47.418;19.080;2023-05-17T05:45:26;99857.00;;;15.81;100.00
63654;BME280;49809;47.418;19.080;2023-05-17T06:08:43;99841.09;;;16.03;100.00
63654;BME280;49809;47.418;19.080;2023-05-17T06:12:58;99849.97;;;16.26;100.00
63654;BME280;49809;47.418;19.080;2023-05-17T06:17:09;99863.78;;;16.41;100.00
63654;BME280;49809;47.418;19.080;2023-05-17T06:48:06;99888.22;;;16.62;100.00
63654;BME280;49809;47.418;19.080;2023-05-17T07:06:13;99916.22;;;17.01;100.00
63654;BME280;49809;47.418;19.080;2023-05-17T07:09:45;99915.09;;;16.79;100.00
63654;BME280;49809;47.418;19.080;2023-05-17T07:13:25;99919.75;;;17.10;100.00
63654;BME280;49809;47.418;19.080;2023-05-17T07:17:02;99921.66;;;16.73;100.00
63654;BME280;49809;47.418;19.080;2023-05-17T07:20:40;99914.72;;;17.30;100.00
63654;BME280;49809;47.418;19.080;2023-05-17T07:24:20;99920.91;;;17.17;100.00
63654;BME280;49809;47.418;19.080;2023-05-17T07:27:42;99913.25;;;17.47;100.00
63654;BME280;49809;47.418;19.080;2023-05-17T07:31:01;99928.25;;;17.56;100.00
63654;BME280;49809;47.418;19.080;2023-05-17T07:34:25;99926.19;;;17.31;100.00
63654;BME280;49809;47.418;19.080;2023-05-17T07:38:09;99929.38;;;17.33;100.00
63654;BME280;49809;47.418;19.080;2023-05-17T07:41:27;99926.69;;;17.11;100.00
63654;BME280;49809;47.418;19.080;2023-05-17T08:44:06;99960.19;;;16.94;100.00
63654;BME280;49809;47.418;19.080;2023-05-17T08:47:48;99962.06;;;17.08;100.00
63654;BME280;49809;47.418;19.080;2023-05-17T08:51:22;99955.00;;;17.12;100.00
63654;BME280;49809;47.418;19.080;2023-05-17T08:55:02;99954.78;;;17.22;100.00
63654;BME280;49809;47.418;19.080;2023-05-17T08:58:42;99957.34;;;17.27;100.00
63654;BME280;49809;47.418;19.080;2023-05-17T09:02:23;99953.59;;;16.92;100.00
63654;BME280;49809;47.418;19.080;2023-05-17T09:06:02;99947.66;;;16.81;100.00
63654;BME280;49809;47.418;19.080;2023-05-17T09:09:32;99944.97;;;16.81;100.00
63654;BME280;49809;47.418;19.080;2023-05-17T09:13:01;99948.34;;;16.87;100.00
63654;BME280;49809;47.418;19.080;2023-05-17T09:16:42;99948.69;;;17.08;100.00
63654;BME280;49809;47.418;19.080;2023-05-17T09:20:28;99951.00;;;17.23;100.00
63654;BME280;49809;47.418;19.080;2023-05-17T09:31:21;99969.19;;;18.10;100.00
63654;BME280;49809;47.418;19.080;2023-05-17T09:34:45;99975.00;;;18.51;100.00
63654;BME280;49809;47.418;19.080;2023-05-17T09:38:26;99981.22;;;18.60;100.00
63654;BME280;49809;47.418;19.080;2023-05-17T09:41:58;99985.56;;;18.48;100.00
63654;BME280;49809;47.418;19.080;2023-05-17T09:45:35;99992.13;;;17.94;100.00
63654;BME280;49809;47.418;19.080;2023-05-17T09:49:15;99992.59;;;18.75;100.00
63654;BME280;49809;47.418;19.080;2023-05-17T09:52:53;99987.88;;;18.89;100.00
63654;BME280;49809;47.418;19.080;2023-05-17T09:56:39;99979.22;;;18.92;98.65
63654;BME280;49809;47.418;19.080;2023-05-17T10:00:32;99983.47;;;18.93;100.00
63654;BME280;49809;47.418;19.080;2023-05-17T10:07:48;99999.91;;;19.77;96.58
63654;BME280;49809;47.418;19.080;2023-05-17T10:11:30;99996.13;;;19.70;96.11
63654;BME280;49809;47.418;19.080;2023-05-17T10:15:29;99999.72;;;19.91;95.84
63654;BME280;49809;47.418;19.080;2023-05-17T10:19:14;99995.31;;;19.18;99.59
63654;BME280;49809;47.418;19.080;2023-05-17T10:27:04;100004.06;;;17.07;100.00
63654;BME280;49809;47.418;19.080;2023-05-17T10:31:04;100009.91;;;16.95;100.00
63654;BME280;49809;47.418;19.080;2023-05-17T10:34:39;100010.66;;;17.10;100.00
63654;BME280;49809;47.418;19.080;2023-05-17T10:53:28;100013.75;;;18.45;96.05
63654;BME280;49809;47.418;19.080;2023-05-17T11:33:49;100055.56;;;21.29;75.56
63654;BME280;49809;47.418;19.080;2023-05-17T11:38:26;100062.66;;;19.56;85.34
63654;BME280;49809;47.418;19.080;2023-05-17T11:51:13;100067.78;;;19.95;79.69
63654;BME280;49809;47.418;19.080;2023-05-17T13:03:21;100086.34;;;21.40;75.06
63654;BME280;49809;47.418;19.080;2023-05-17T13:19:10;100103.78;;;20.83;75.97
63654;BME280;49809;47.418;19.080;2023-05-17T13:22:56;100105.53;;;20.79;75.40
63654;BME280;49809;47.418;19.080;2023-05-17T13:26:42;100098.06;;;20.85;74.08
63654;BME280;49809;47.418;19.080;2023-05-17T13:30:26;100105.44;;;20.59;76.12
63654;BME280;49809;47.418;19.080;2023-05-17T13:34:10;100097.47;;;20.79;74.46
63654;BME280;49809;47.418;19.080;2023-05-17T13:37:16;100102.66;;;20.47;75.05
63654;BME280;49809;47.418;19.080;2023-05-17T13:40:51;100083.47;;;19.76;77.30
63654;BME280;49809;47.418;19.080;2023-05-17T13:44:27;100080.63;;;19.46;78.77
63654;BME280;49809;47.418;19.080;2023-05-17T13:48:03;100088.28;;;19.14;81.07
63654;BME280;49809;47.418;19.080;2023-05-17T13:51:43;100085.94;;;18.33;82.46
63654;BME280;49809;47.418;19.080;2023-05-17T13:55:24;100089.00;;;18.80;81.63
63654;BME280;49809;47.418;19.080;2023-05-17T13:58:44;100096.66;;;19.12;80.45
63654;BME280;49809;47.418;19.080;2023-05-17T14:02:13;100101.94;;;18.78;81.22
63654;BME280;49809;47.418;19.080;2023-05-17T14:05:37;100105.84;;;18.49;81.68
63654;BME280;49809;47.418;19.080;2023-05-17T14:09:03;100105.69;;;18.46;82.63
63654;BME280;49809;47.418;19.080;2023-05-17T14:12:29;100105.44;;;18.56;80.61
63654;BME280;49809;47.418;19.080;2023-05-17T14:15:57;100115.00;;;18.79;78.88
63654;BME280;49809;47.418;19.080;2023-05-17T14:19:40;100122.03;;;18.36;81.82
63654;BME280;49809;47.418;19.080;2023-05-17T14:23:00;100131.22;;;18.21;81.68
63654;BME280;49809;47.418;19.080;2023-05-17T14:26:37;100139.13;;;18.48;81.33
63654;BME280;49809;47.418;19.080;2023-05-17T14:30:00;100133.13;;;18.20;83.46
63654;BME280;49809;47.418;19.080;2023-05-17T14:33:20;100138.81;;;18.19;81.94
63654;BME280;49809;47.418;19.080;2023-05-17T14:36:50;100141.25;;;17.57;82.38
63654;BME280;49809;47.418;19.080;2023-05-17T14:40:09;100152.00;;;17.30;84.80
63654;BME280;49809;47.418;19.080;2023-05-17T14:43:43;100157.75;;;17.87;83.27
63654;BME280;49809;47.418;19.080;2023-05-17T14:47:18;100153.75;;;17.98;81.78
63654;BME280;49809;47.418;19.080;2023-05-17T14:50:38;100170.69;;;17.85;81.26
63654;BME280;49809;47.418;19.080;2023-05-17T14:53:56;100166.53;;;17.78;82.46
63654;BME280;49809;47.418;19.080;2023-05-17T14:57:18;100171.34;;;17.90;82.07
63654;BME280;49809;47.418;19.080;2023-05-17T15:00:40;100173.88;;;18.09;80.07
63654;BME280;49809;47.418;19.080;2023-05-17T15:04:05;100177.84;;;17.48;82.15
63654;BME280;49809;47.418;19.080;2023-05-17T15:11:13;100178.81;;;17.79;80.21
63654;BME280;49809;47.418;19.080;2023-05-17T15:14:31;100187.72;;;17.89;82.55
63654;BME280;49809;47.418;19.080;2023-05-17T15:18:03;100190.63;;;17.78;81.24
63654;BME280;49809;47.418;19.080;2023-05-17T15:29:09;100204.28;;;16.81;83.87
63654;BME280;49809;47.418;19.080;2023-05-17T15:32:35;100207.38;;;16.88;84.81
63654;BME280;49809;47.418;19.080;2023-05-17T15:36:10;100213.47;;;16.75;84.92
63654;BME280;49809;47.418;19.080;2023-05-17T15:39:37;100206.06;;;16.53;84.72
63654;BME280;49809;47.418;19.080;2023-05-17T15:42:55;100217.44;;;16.78;84.60
63654;BME280;49809;47.418;19.080;2023-05-17T15:46:15;100220.50;;;16.52;84.96
63654;BME280;49809;47.418;19.080;2023-05-17T15:49:52;100216.22;;;16.70;85.30
63654;BME280;49809;47.418;19.080;2023-05-17T15:53:28;100213.00;;;16.55;85.68
63654;BME280;49809;47.418;19.080;2023-05-17T15:57:03;100216.09;;;15.92;87.41
63654;BME280;49809;47.418;19.080;2023-05-17T16:00:39;100226.84;;;15.87;88.53
63654;BME280;49809;47.418;19.080;2023-05-17T16:04:01;100214.44;;;15.77;88.03
63654;BME280;49809;47.418;19.080;2023-05-17T16:07:37;100219.50;;;15.55;89.27
63654;BME280;49809;47.418;19.080;2023-05-17T16:10:56;100227.03;;;15.00;92.52
63654;BME280;49809;47.418;19.080;2023-05-17T16:14:17;100220.13;;;15.23;91.21
63654;BME280;49809;47.418;19.080;2023-05-17T16:17:49;100229.06;;;15.32;91.29
63654;BME280;49809;47.418;19.080;2023-05-17T16:21:07;100232.53;;;15.33;91.57
63654;BME280;49809;47.418;19.080;2023-05-17T16:24:41;100236.16;;;15.18;91.16
63654;BME280;49809;47.418;19.080;2023-05-17T16:28:11;100244.50;;;15.35;90.83
63654;BME280;49809;47.418;19.080;2023-05-17T16:31:49;100247.88;;;14.93;91.21
63654;BME280;49809;47.418;19.080;2023-05-17T16:35:11;100257.03;;;14.82;91.45
63654;BME280;49809;47.418;19.080;2023-05-17T16:38:32;100258.44;;;14.41;93.39
63654;BME280;49809;47.418;19.080;2023-05-17T16:41:58;100256.22;;;14.48;92.15
63654;BME280;49809;47.418;19.080;2023-05-17T16:45:34;100264.03;;;14.39;93.63
63654;BME280;49809;47.418;19.080;2023-05-17T16:49:07;100281.88;;;14.33;92.99
63654;BME280;49809;47.418;19.080;2023-05-17T16:52:46;100280.38;;;14.17;94.03
63654;BME280;49809;47.418;19.080;2023-05-17T16:56:04;100283.66;;;13.99;94.59
63654;BME280;49809;47.418;19.080;2023-05-17T16:59:42;100285.81;;;13.97;96.17
63654;BME280;49809;47.418;19.080;2023-05-17T17:03:30;100278.88;;;14.01;96.14
63654;BME280;49809;47.418;19.080;2023-05-17T17:07:08;100284.16;;;14.06;95.88
63654;BME280;49809;47.418;19.080;2023-05-17T17:10:54;100296.97;;;13.99;94.82
63654;BME280;49809;47.418;19.080;2023-05-17T17:25:20;100310.34;;;13.89;95.20
63654;BME280;49809;47.418;19.080;2023-05-17T17:28:51;100302.34;;;13.89;94.70
63654;BME280;49809;47.418;19.080;2023-05-17T17:36:06;100314.94;;;13.63;96.41
63654;BME280;49809;47.418;19.080;2023-05-17T17:39:52;100318.44;;;13.48;96.33
63654;BME280;49809;47.418;19.080;2023-05-17T17:43:30;100318.44;;;13.43;97.43
63654;BME280;49809;47.418;19.080;2023-05-17T17:47:06;100321.09;;;13.38;97.54
63654;BME280;49809;47.418;19.080;2023-05-17T17:50:54;100323.75;;;13.48;97.46
63654;BME280;49809;47.418;19.080;2023-05-17T17:54:32;100319.78;;;13.36;98.06
63654;BME280;49809;47.418;19.080;2023-05-17T17:58:20;100316.88;;;13.17;98.61
63654;BME280;49809;47.418;19.080;2023-05-17T18:05:48;100324.31;;;13.05;99.63
63654;BME280;49809;47.418;19.080;2023-05-17T18:09:30;100316.06;;;13.06;99.57
63654;BME280;49809;47.418;19.080;2023-05-17T18:16:48;100329.59;;;12.64;100.00
63654;BME280;49809;47.418;19.080;2023-05-17T18:38:59;100339.94;;;12.51;100.00
63654;BME280;49809;47.418;19.080;2023-05-17T18:42:43;100344.16;;;12.47;100.00
63654;BME280;49809;47.418;19.080;2023-05-17T18:46:16;100341.78;;;12.55;100.00
63654;BME280;49809;47.418;19.080;2023-05-17T18:53:46;100342.06;;;12.49;100.00
